createdAt,value
2023-03-06T00:01:09.005Z,11.35
2023-03-06T00:03:39.281Z,11.67
2023-03-06T00:06:14.368Z,11.10
2023-03-06T00:11:21.697Z,10.59
2023-03-06T00:13:59.789Z,10.57
2023-03-06T00:16:37.448Z,10.65
2023-03-06T00:19:05.310Z,10.80
2023-03-06T00:21:48.905Z,10.97
2023-03-06T00:24:27.625Z,11.08
2023-03-06T00:29:40.403Z,10.84
2023-03-06T00:32:14.553Z,10.92
2023-03-06T00:34:41.675Z,10.62
2023-03-06T00:37:10.045Z,10.95
2023-03-06T00:39:37.516Z,10.78
2023-03-06T00:42:16.058Z,10.76
2023-03-06T00:44:54.974Z,10.80
2023-03-06T00:47:26.661Z,10.59
2023-03-06T00:50:01.208Z,10.48
2023-03-06T00:52:28.354Z,10.78
2023-03-06T00:55:05.711Z,10.64
2023-03-06T00:57:40.276Z,10.55
2023-03-06T01:00:10.571Z,10.40
2023-03-06T01:02:38.738Z,10.21
2023-03-06T01:05:11.677Z,9.90
2023-03-06T01:07:41.688Z,10.15
2023-03-06T01:10:17.958Z,10.24
2023-03-06T01:12:48.251Z,10.35
2023-03-06T01:15:33.974Z,10.16
2023-03-06T01:18:10.609Z,10.11
2023-03-06T01:20:41.260Z,9.89
2023-03-06T01:23:30.901Z,10.16
2023-03-06T01:26:03.351Z,10.26
2023-03-06T01:28:30.356Z,10.17
2023-03-06T01:31:04.347Z,10.12
2023-03-06T01:33:40.458Z,10.17
2023-03-06T01:36:12.234Z,10.39
2023-03-06T01:38:42.362Z,10.59
2023-03-06T01:41:34.423Z,10.28
2023-03-06T01:44:07.335Z,10.56
2023-03-06T01:46:43.538Z,10.30
2023-03-06T01:49:19.957Z,10.39
2023-03-06T01:51:54.695Z,10.38
2023-03-06T01:54:29.130Z,10.48
2023-03-06T01:57:19.542Z,10.42
2023-03-06T01:59:53.146Z,10.22
2023-03-06T02:02:27.455Z,10.17
2023-03-06T02:04:54.487Z,10.22
2023-03-06T02:07:21.835Z,10.27
2023-03-06T02:09:51.952Z,10.05
2023-03-06T02:12:39.812Z,10.22
2023-03-06T02:15:29.984Z,10.41
2023-03-06T02:18:00.647Z,10.31
2023-03-06T02:20:52.019Z,10.12
2023-03-06T02:23:51.942Z,10.14
2023-03-06T02:26:22.202Z,10.01
2023-03-06T02:28:58.532Z,10.05
2023-03-06T02:31:33.436Z,10.06
2023-03-06T02:34:37.850Z,10.24
2023-03-06T02:37:15.094Z,10.89
2023-03-06T02:39:52.177Z,11.09
2023-03-06T02:42:25.350Z,11.03
2023-03-06T02:44:57.920Z,11.18
2023-03-06T02:47:24.577Z,11.08
2023-03-06T02:50:00.907Z,11.12
2023-03-06T02:52:31.863Z,11.04
2023-03-06T02:55:01.807Z,11.20
2023-03-06T02:57:31.370Z,11.10
2023-03-06T02:59:59.725Z,11.23
2023-03-06T03:02:28.537Z,11.35
2023-03-06T03:05:07.047Z,11.41
2023-03-06T03:10:29.345Z,11.34
2023-03-06T03:12:59.454Z,11.45
2023-03-06T03:15:26.507Z,11.41
2023-03-06T03:17:53.522Z,11.29
2023-03-06T03:20:22.453Z,11.44
2023-03-06T03:22:51.361Z,11.40
2023-03-06T03:25:18.933Z,11.69
2023-03-06T03:27:46.260Z,11.79
2023-03-06T03:30:13.626Z,11.57
2023-03-06T03:32:42.822Z,11.47
2023-03-06T03:35:29.279Z,11.38
2023-03-06T03:38:11.038Z,11.48
2023-03-06T03:43:37.880Z,11.39
2023-03-06T03:46:14.006Z,11.42
2023-03-06T03:48:57.027Z,11.53
2023-03-06T03:51:23.813Z,11.42
2023-03-06T03:53:51.979Z,11.18
2023-03-06T03:56:18.919Z,11.04
2023-03-06T03:58:57.689Z,11.05
2023-03-06T04:01:39.675Z,11.09
2023-03-06T04:07:10.444Z,11.20
2023-03-06T04:09:40.317Z,11.18
2023-03-06T04:12:10.254Z,10.98
2023-03-06T04:14:39.913Z,10.41
2023-03-06T04:17:06.762Z,10.42
2023-03-06T04:19:33.910Z,10.18
2023-03-06T04:22:04.080Z,10.00
2023-03-06T04:24:42.292Z,10.33
2023-03-06T04:27:25.021Z,10.44
2023-03-06T04:30:04.441Z,10.29
2023-03-06T04:32:34.192Z,10.33
2023-03-06T04:35:01.290Z,10.41
2023-03-06T04:37:37.735Z,10.47
2023-03-06T04:40:13.729Z,10.66
2023-03-06T04:43:08.602Z,10.65
2023-03-06T04:45:35.700Z,11.03
2023-03-06T04:48:03.173Z,11.00
2023-03-06T04:50:43.146Z,10.47
2023-03-06T04:53:16.847Z,10.24
2023-03-06T04:55:48.182Z,11.03
2023-03-06T04:58:17.586Z,11.79
2023-03-06T05:00:44.480Z,11.52
2023-03-06T05:03:22.372Z,11.96
2023-03-06T05:06:10.751Z,12.23
2023-03-06T05:08:40.561Z,11.66
2023-03-06T05:11:20.667Z,11.41
2023-03-06T05:13:56.583Z,11.32
2023-03-06T05:16:26.451Z,11.20
2023-03-06T05:19:08.823Z,10.44
2023-03-06T05:21:42.118Z,10.99
2023-03-06T05:24:14.791Z,11.60
2023-03-06T05:26:51.584Z,11.10
2023-03-06T05:29:25.319Z,10.24
2023-03-06T05:32:08.839Z,10.72
2023-03-06T05:34:41.986Z,10.53
2023-03-06T05:37:08.998Z,10.82
2023-03-06T05:39:52.633Z,10.95
2023-03-06T05:42:23.233Z,10.87
2023-03-06T05:44:53.903Z,10.65
2023-03-06T05:47:26.768Z,10.83
2023-03-06T05:50:10.733Z,10.88
2023-03-06T05:55:38.658Z,11.18
2023-03-06T05:58:11.496Z,11.85
2023-03-06T06:00:42.019Z,12.05
2023-03-06T06:03:12.218Z,11.77
2023-03-06T06:05:40.319Z,11.43
2023-03-06T06:08:08.357Z,11.14
2023-03-06T06:10:36.466Z,11.71
2023-03-06T06:13:06.154Z,11.10
2023-03-06T06:15:43.026Z,10.60
2023-03-06T06:18:15.633Z,10.16
2023-03-06T06:20:42.480Z,10.01
2023-03-06T06:23:14.330Z,10.02
2023-03-06T06:25:41.320Z,9.97
2023-03-06T06:28:13.185Z,10.09
2023-03-06T06:30:42.785Z,10.17
2023-03-06T06:33:19.382Z,10.48
2023-03-06T06:35:46.458Z,10.46
2023-03-06T06:38:22.244Z,10.40
2023-03-06T06:41:19.341Z,10.33
2023-03-06T06:43:42.079Z,10.34
2023-03-06T06:46:53.391Z,10.33
2023-03-06T06:49:05.790Z,10.57
2023-03-06T06:51:39.013Z,10.74
2023-03-06T06:54:06.548Z,11.11
2023-03-06T06:56:34.759Z,11.37
2023-03-06T06:59:16.710Z,11.45
2023-03-06T07:01:52.781Z,11.46
2023-03-06T07:04:23.484Z,11.47
2023-03-06T07:06:55.320Z,11.55
2023-03-06T07:09:22.563Z,11.79
2023-03-06T07:11:52.565Z,11.68
2023-03-06T07:14:21.543Z,11.56
2023-03-06T07:16:49.939Z,11.66
2023-03-06T07:19:19.777Z,11.62
2023-03-06T07:21:55.619Z,11.52
2023-03-06T07:24:22.481Z,11.22
2023-03-06T07:26:49.224Z,11.48
2023-03-06T07:29:16.174Z,11.70
2023-03-06T07:31:43.020Z,11.94
2023-03-06T07:34:17.859Z,11.72
2023-03-06T07:36:48.826Z,11.63
2023-03-06T07:39:15.750Z,11.77
2023-03-06T07:41:48.384Z,12.00
2023-03-06T07:44:15.163Z,11.64
2023-03-06T07:46:47.776Z,11.97
2023-03-06T07:49:14.693Z,12.01
2023-03-06T07:51:47.351Z,12.24
2023-03-06T07:54:14.176Z,12.24
2023-03-06T07:56:40.979Z,12.19
2023-03-06T07:59:11.945Z,12.32
2023-03-06T08:01:40.400Z,12.45
2023-03-06T08:04:07.292Z,12.56
2023-03-06T08:06:38.475Z,12.72
2023-03-06T08:09:11.571Z,12.49
2023-03-06T08:11:38.344Z,12.91
2023-03-06T08:14:05.308Z,12.64
2023-03-06T08:16:40.728Z,12.62
2023-03-06T08:19:29.069Z,12.62
2023-03-06T08:22:16.079Z,12.91
2023-03-06T08:24:43.822Z,12.77
2023-03-06T08:27:23.282Z,12.79
2023-03-06T08:30:03.772Z,12.95
2023-03-06T08:32:37.476Z,12.91
2023-03-06T08:35:17.320Z,13.03
2023-03-06T08:37:47.118Z,13.06
2023-03-06T08:40:27.855Z,13.09
2023-03-06T08:43:00.817Z,13.03
2023-03-06T08:45:55.105Z,13.06
2023-03-06T08:48:33.862Z,13.12
2023-03-06T08:51:05.309Z,13.06
2023-03-06T08:53:43.409Z,13.11
2023-03-06T08:56:35.038Z,13.14
2023-03-06T08:59:10.719Z,13.19
2023-03-06T09:01:46.701Z,13.19
2023-03-06T09:04:13.509Z,13.25
2023-03-06T09:06:49.295Z,13.31
2023-03-06T09:09:22.986Z,13.27
2023-03-06T09:11:51.370Z,13.33
2023-03-06T09:14:25.520Z,13.35
2023-03-06T09:17:02.201Z,13.39
2023-03-06T09:19:38.672Z,13.38
2023-03-06T09:22:08.686Z,13.48
2023-03-06T09:25:01.488Z,13.51
2023-03-06T09:27:33.198Z,13.62
2023-03-06T09:30:06.433Z,13.73
2023-03-06T09:32:33.334Z,13.84
2023-03-06T09:35:06.979Z,13.91
2023-03-06T09:37:42.774Z,13.88
2023-03-06T09:40:30.252Z,14.02
2023-03-06T09:42:59.771Z,14.11
2023-03-06T09:45:32.616Z,14.12
2023-03-06T09:48:13.690Z,14.35
2023-03-06T09:50:46.701Z,14.35
2023-03-06T09:53:31.821Z,14.39
2023-03-06T09:56:06.984Z,14.27
2023-03-06T09:58:50.325Z,14.41
2023-03-06T10:01:25.335Z,14.39
2023-03-06T10:04:09.253Z,14.42
2023-03-06T10:06:55.424Z,14.37
2023-03-06T10:09:43.364Z,14.32
2023-03-06T10:12:26.027Z,14.38
2023-03-06T10:14:58.767Z,14.46
2023-03-06T10:17:35.484Z,14.73
2023-03-06T10:20:26.761Z,14.93
2023-03-06T10:23:31.164Z,14.99
2023-03-06T10:26:34.374Z,15.09
2023-03-06T10:29:29.741Z,14.77
2023-03-06T10:32:18.104Z,14.93
2023-03-06T10:34:48.260Z,14.93
2023-03-06T10:37:40.301Z,15.25
2023-03-06T10:40:23.053Z,15.55
2023-03-06T10:43:09.338Z,15.44
2023-03-06T10:45:49.540Z,15.33
2023-03-06T10:48:26.862Z,15.35
2023-03-06T10:51:23.350Z,15.25
2023-03-06T10:54:02.013Z,15.10
2023-03-06T10:56:58.067Z,15.00
2023-03-06T10:59:35.384Z,14.90
2023-03-06T11:02:27.509Z,14.91
2023-03-06T11:05:00.299Z,14.89
2023-03-06T11:07:37.861Z,15.02
2023-03-06T11:10:32.474Z,14.93
2023-03-06T11:13:06.446Z,14.92
2023-03-06T11:15:42.773Z,14.80
2023-03-06T11:18:09.441Z,14.69
2023-03-06T11:20:52.549Z,14.86
2023-03-06T11:23:55.480Z,14.73
2023-03-06T11:26:34.496Z,14.62
2023-03-06T11:29:38.582Z,14.63
2023-03-06T11:32:36.020Z,14.48
2023-03-06T11:35:41.310Z,14.45
2023-03-06T11:38:22.617Z,14.40
2023-03-06T11:40:59.952Z,14.44
2023-03-06T11:43:57.183Z,14.38
2023-03-06T11:46:52.395Z,14.45
2023-03-06T11:49:59.278Z,14.32
2023-03-06T11:52:52.320Z,14.47
2023-03-06T11:55:28.563Z,14.38
2023-03-06T11:58:14.587Z,14.26
2023-03-06T12:01:06.226Z,14.39
2023-03-06T12:04:07.175Z,14.53
2023-03-06T12:06:49.337Z,14.40
2023-03-06T12:09:44.004Z,14.35
2023-03-06T12:12:35.048Z,14.32
2023-03-06T12:15:26.999Z,14.46
2023-03-06T12:18:29.075Z,14.49
2023-03-06T12:21:13.994Z,14.38
2023-03-06T12:24:00.920Z,14.52
2023-03-06T12:26:39.409Z,14.47
2023-03-06T12:29:44.085Z,14.39
2023-03-06T12:33:12.430Z,14.48
2023-03-06T12:35:54.885Z,14.55
2023-03-06T12:38:46.688Z,14.53
2023-03-06T12:41:36.970Z,14.52
2023-03-06T12:44:50.392Z,14.38
2023-03-06T12:47:35.014Z,14.52
2023-03-06T12:50:22.680Z,14.52
2023-03-06T12:52:55.169Z,14.57
2023-03-06T12:55:26.041Z,14.56
2023-03-06T12:58:37.089Z,14.70
2023-03-06T13:01:34.859Z,14.69
2023-03-06T13:04:38.833Z,14.72
2023-03-06T13:07:34.950Z,14.89
2023-03-06T13:10:16.450Z,14.96
2023-03-06T13:13:00.949Z,14.90
2023-03-06T13:16:03.841Z,15.07
2023-03-06T13:18:39.210Z,14.94
2023-03-06T13:21:06.036Z,14.93
2023-03-06T13:23:37.641Z,14.89
2023-03-06T13:26:25.699Z,14.82
2023-03-06T13:28:59.215Z,14.86
2023-03-06T13:31:28.291Z,14.84
2023-03-06T13:34:08.690Z,15.07
2023-03-06T13:36:46.368Z,15.07
2023-03-06T13:42:04.094Z,15.06
2023-03-06T13:44:44.583Z,15.02
2023-03-06T13:48:43.227Z,15.10
2023-03-06T13:51:36.065Z,14.92
2023-03-06T13:54:35.168Z,14.99
2023-03-06T13:57:43.729Z,15.07
2023-03-06T14:00:58.834Z,15.01
2023-03-06T14:03:40.138Z,14.99
2023-03-06T14:06:57.917Z,14.94
2023-03-06T14:09:46.324Z,14.83
2023-03-06T14:12:27.736Z,14.77
2023-03-06T14:15:13.186Z,14.79
2023-03-06T14:18:07.457Z,14.85
2023-03-06T14:20:54.006Z,14.85
2023-03-06T14:23:32.375Z,14.85
2023-03-06T14:26:25.186Z,14.94
2023-03-06T14:29:08.451Z,14.88
2023-03-06T14:31:45.018Z,14.83
2023-03-06T14:34:30.173Z,14.94
2023-03-06T14:37:12.428Z,14.90
2023-03-06T14:42:48.024Z,14.74
2023-03-06T14:45:18.930Z,14.83
2023-03-06T14:47:59.296Z,14.68
2023-03-06T14:50:39.401Z,14.75
2023-03-06T14:53:20.056Z,14.74
2023-03-06T14:56:06.257Z,14.69
2023-03-06T14:58:41.023Z,14.69
2023-03-06T15:01:10.987Z,14.68
2023-03-06T15:03:52.380Z,14.65
2023-03-06T15:06:38.715Z,14.68
2023-03-06T15:09:35.107Z,14.74
2023-03-06T15:12:09.675Z,14.80
2023-03-06T15:14:44.189Z,14.89
2023-03-06T15:17:24.227Z,14.88
2023-03-06T15:19:55.126Z,14.86
2023-03-06T15:22:29.245Z,14.88
2023-03-06T15:25:35.214Z,14.76
2023-03-06T15:28:29.111Z,14.74
2023-03-06T15:31:31.135Z,14.86
2023-03-06T15:34:08.078Z,14.85
2023-03-06T15:36:50.178Z,14.83
2023-03-06T15:42:30.920Z,14.64
2023-03-06T15:45:16.880Z,14.69
2023-03-06T15:47:53.860Z,14.65
2023-03-06T15:50:26.877Z,14.55
2023-03-06T15:52:56.951Z,14.56
2023-03-06T15:55:32.365Z,14.55
2023-03-06T15:58:07.456Z,14.57
2023-03-06T16:01:02.899Z,14.56
2023-03-06T16:03:31.866Z,14.57
2023-03-06T16:06:02.333Z,14.56
2023-03-06T16:08:34.009Z,14.51
2023-03-06T16:11:00.712Z,14.44
2023-03-06T16:13:29.052Z,14.51
2023-03-06T16:15:56.347Z,14.53
2023-03-06T16:18:25.948Z,14.52
2023-03-06T16:20:59.708Z,14.53
2023-03-06T16:23:26.512Z,14.44
2023-03-06T16:25:56.549Z,14.44
2023-03-06T16:28:34.585Z,14.28
2023-03-06T16:31:01.553Z,14.27
2023-03-06T16:33:30.068Z,14.27
2023-03-06T16:35:58.736Z,14.17
2023-03-06T16:38:25.597Z,14.22
2023-03-06T16:40:55.227Z,14.21
2023-03-06T16:43:22.015Z,14.29
2023-03-06T16:45:55.285Z,14.16
2023-03-06T16:48:22.457Z,14.22
2023-03-06T16:51:14.970Z,14.26
2023-03-06T16:53:58.025Z,14.04
2023-03-06T16:56:37.670Z,14.00
2023-03-06T16:59:08.231Z,13.94
2023-03-06T17:01:35.419Z,14.00
2023-03-06T17:04:02.216Z,13.99
2023-03-06T17:06:29.230Z,14.03
2023-03-06T17:08:58.351Z,13.95
2023-03-06T17:11:27.108Z,13.76
2023-03-06T17:13:55.483Z,13.77
2023-03-06T17:16:23.913Z,13.88
2023-03-06T17:19:03.694Z,13.81
2023-03-06T17:21:46.130Z,13.73
2023-03-06T17:24:13.327Z,13.67
2023-03-06T17:26:46.618Z,13.69
2023-03-06T17:29:19.267Z,13.66
2023-03-06T17:32:03.670Z,13.66
2023-03-06T17:34:30.449Z,13.51
2023-03-06T17:37:00.428Z,13.65
2023-03-06T17:39:44.218Z,13.63
2023-03-06T17:42:14.365Z,13.43
2023-03-06T17:44:41.676Z,13.28
2023-03-06T17:47:22.181Z,13.37
2023-03-06T17:49:52.273Z,13.35
2023-03-06T17:52:24.378Z,13.39
2023-03-06T17:54:51.351Z,13.30
2023-03-06T17:57:26.003Z,13.38
2023-03-06T17:59:57.379Z,13.27
2023-03-06T18:02:27.646Z,13.20
2023-03-06T18:04:59.378Z,13.23
2023-03-06T18:07:28.974Z,13.21
2023-03-06T18:10:04.220Z,13.26
2023-03-06T18:12:39.868Z,13.22
2023-03-06T18:15:07.285Z,13.30
2023-03-06T18:17:44.490Z,13.36
2023-03-06T18:20:19.815Z,13.33
2023-03-06T18:22:57.516Z,13.36
2023-03-06T18:25:38.817Z,13.39
2023-03-06T18:28:19.584Z,13.36
2023-03-06T18:30:48.701Z,13.22
2023-03-06T18:33:20.951Z,13.29
2023-03-06T18:35:57.114Z,13.38
2023-03-06T18:38:33.181Z,13.28
2023-03-06T18:41:05.206Z,13.15
2023-03-06T18:43:43.793Z,13.26
2023-03-06T18:46:14.556Z,13.36
2023-03-06T18:48:47.693Z,13.23
2023-03-06T18:51:21.105Z,13.24
2023-03-06T18:53:48.578Z,13.25
2023-03-06T18:56:21.446Z,13.18
2023-03-06T18:58:50.477Z,13.17
2023-03-06T19:01:21.340Z,13.17
2023-03-06T19:03:48.651Z,13.26
2023-03-06T19:06:28.021Z,13.14
2023-03-06T19:09:11.781Z,13.17
2023-03-06T19:11:38.656Z,13.23
2023-03-06T19:14:25.663Z,13.30
2023-03-06T19:16:57.120Z,13.22
2023-03-06T19:19:30.230Z,13.21
2023-03-06T19:22:01.058Z,13.34
2023-03-06T19:24:37.037Z,13.24
2023-03-06T19:27:11.549Z,13.25
2023-03-06T19:29:54.966Z,13.16
2023-03-06T19:32:37.143Z,13.13
2023-03-06T19:35:19.876Z,12.99
2023-03-06T19:38:08.171Z,12.94
2023-03-06T19:40:47.887Z,12.96
2023-03-06T19:43:41.942Z,12.96
2023-03-06T19:46:19.401Z,12.96
2023-03-06T19:48:56.211Z,12.99
2023-03-06T19:51:58.111Z,13.11
2023-03-06T19:54:54.801Z,13.03
2023-03-06T19:57:31.385Z,13.12
2023-03-06T20:00:11.118Z,13.10
2023-03-06T20:02:39.818Z,12.96
2023-03-06T20:05:12.612Z,12.96
2023-03-06T20:07:39.414Z,12.87
2023-03-06T20:10:07.101Z,13.01
2023-03-06T20:12:37.726Z,13.05
2023-03-06T20:15:09.492Z,13.03
2023-03-06T20:17:49.822Z,12.96
2023-03-06T20:20:16.882Z,12.98
2023-03-06T20:22:52.864Z,13.07
2023-03-06T20:25:37.057Z,13.06
2023-03-06T20:28:11.241Z,13.11
2023-03-06T20:30:49.633Z,13.06
2023-03-06T20:33:22.531Z,13.08
2023-03-06T20:36:01.794Z,13.06
2023-03-06T20:38:39.752Z,13.04
2023-03-06T20:41:08.534Z,12.92
2023-03-06T20:43:47.417Z,12.88
2023-03-06T20:46:34.429Z,12.98
2023-03-06T20:49:49.276Z,13.06
2023-03-06T20:52:29.075Z,12.95
2023-03-06T20:55:03.242Z,13.04
2023-03-06T20:57:39.302Z,13.02
2023-03-06T21:00:20.143Z,12.94
2023-03-06T21:02:59.718Z,12.92
2023-03-06T21:05:40.683Z,13.02
2023-03-06T21:08:20.640Z,13.01
2023-03-06T21:10:56.000Z,12.99
2023-03-06T21:13:58.001Z,12.89
2023-03-06T21:16:32.395Z,12.96
2023-03-06T21:19:27.316Z,12.89
2023-03-06T21:22:01.530Z,12.93
2023-03-06T21:24:32.225Z,12.93
2023-03-06T21:26:59.255Z,12.92
2023-03-06T21:35:05.668Z,12.73
2023-03-06T21:37:43.628Z,12.78
2023-03-06T21:40:12.273Z,12.69
2023-03-06T21:42:50.656Z,12.68
2023-03-06T21:48:16.962Z,12.72
2023-03-06T21:50:45.295Z,12.60
2023-03-06T21:56:33.120Z,12.63
2023-03-06T21:59:08.202Z,12.63
2023-03-06T22:01:48.818Z,12.61
2023-03-06T22:04:33.571Z,12.57
2023-03-06T22:07:10.311Z,12.58
2023-03-06T22:09:43.182Z,12.50
2023-03-06T22:12:15.460Z,12.54
2023-03-06T22:14:50.721Z,12.61
2023-03-06T22:17:17.798Z,12.56
2023-03-06T22:22:56.134Z,12.66
2023-03-06T22:25:26.698Z,12.60
2023-03-06T22:27:54.642Z,12.65
2023-03-06T22:30:24.321Z,12.59
2023-03-06T22:32:56.370Z,12.68
2023-03-06T22:35:31.431Z,12.63
2023-03-06T22:38:23.471Z,12.75
2023-03-06T22:41:03.707Z,12.57
2023-03-06T22:43:53.533Z,12.61
2023-03-06T22:46:46.546Z,12.75
2023-03-06T22:49:26.123Z,12.59
2023-03-06T22:51:59.031Z,12.59
2023-03-06T22:54:46.578Z,12.39
2023-03-06T22:57:32.526Z,12.29
2023-03-06T22:59:59.882Z,12.34
2023-03-06T23:03:02.153Z,12.08
2023-03-06T23:05:35.859Z,12.09
2023-03-06T23:08:04.608Z,12.26
2023-03-06T23:10:34.355Z,12.28
2023-03-06T23:13:10.978Z,12.25
2023-03-06T23:15:47.848Z,12.29
2023-03-06T23:18:29.514Z,12.33
2023-03-06T23:21:13.930Z,12.12
2023-03-06T23:23:54.290Z,12.23
2023-03-06T23:26:42.040Z,12.12
2023-03-06T23:29:10.760Z,12.23
2023-03-06T23:32:05.603Z,12.20
2023-03-06T23:34:32.519Z,12.17
2023-03-06T23:37:10.143Z,11.88
2023-03-06T23:39:54.106Z,11.96
2023-03-06T23:42:55.581Z,12.02
2023-03-06T23:45:38.804Z,11.73
2023-03-06T23:48:12.321Z,11.93
2023-03-06T23:50:47.918Z,11.95
2023-03-06T23:53:14.863Z,11.90
2023-03-06T23:55:57.842Z,11.92
2023-03-06T23:58:45.245Z,11.71
